sensor_id;sensor_type;location;lat;lon;timestamp;P1;durP1;ratioP1;P2;durP2;ratioP2
31043;SDS011;17710;52.520;13.352;2022-12-07T00:01:18;14.60;;;7.70;;
31043;SDS011;17710;52.520;13.352;2022-12-07T00:03:46;15.57;;;8.10;;
31043;SDS011;17710;52.520;13.352;2022-12-07T00:06:14;13.95;;;8.02;;
31043;SDS011;17710;52.520;13.352;2022-12-07T00:08:42;12.50;;;7.40;;
31043;SDS011;17710;52.520;13.352;2022-12-07T00:11:10;12.68;;;7.53;;
31043;SDS011;17710;52.520;13.352;2022-12-07T00:13:38;13.43;;;7.50;;
31043;SDS011;17710;52.520;13.352;2022-12-07T00:16:07;14.32;;;7.20;;
31043;SDS011;17710;52.520;13.352;2022-12-07T00:18:36;12.38;;;7.03;;
31043;SDS011;17710;52.520;13.352;2022-12-07T00:21:04;11.68;;;7.75;;
31043;SDS011;17710;52.520;13.352;2022-12-07T00:23:32;12.25;;;7.30;;
31043;SDS011;17710;52.520;13.352;2022-12-07T00:26:03;15.23;;;8.23;;
31043;SDS011;17710;52.520;13.352;2022-12-07T00:28:30;13.98;;;8.30;;
31043;SDS011;17710;52.520;13.352;2022-12-07T00:30:59;14.90;;;8.02;;
31043;SDS011;17710;52.520;13.352;2022-12-07T00:33:27;11.73;;;7.45;;
31043;SDS011;17710;52.520;13.352;2022-12-07T00:35:56;12.48;;;7.50;;
31043;SDS011;17710;52.520;13.352;2022-12-07T00:38:22;14.43;;;7.55;;
31043;SDS011;17710;52.520;13.352;2022-12-07T00:40:53;10.77;;;6.78;;
31043;SDS011;17710;52.520;13.352;2022-12-07T00:43:20;13.70;;;7.30;;
31043;SDS011;17710;52.520;13.352;2022-12-07T00:45:47;11.23;;;7.65;;
31043;SDS011;17710;52.520;13.352;2022-12-07T00:48:13;9.50;;;6.40;;
31043;SDS011;17710;52.520;13.352;2022-12-07T00:50:40;10.45;;;6.97;;
31043;SDS011;17710;52.520;13.352;2022-12-07T00:53:08;11.70;;;7.57;;
31043;SDS011;17710;52.520;13.352;2022-12-07T00:55:35;11.10;;;7.07;;
31043;SDS011;17710;52.520;13.352;2022-12-07T00:58:02;11.43;;;7.00;;
31043;SDS011;17710;52.520;13.352;2022-12-07T01:00:29;9.93;;;6.78;;
31043;SDS011;17710;52.520;13.352;2022-12-07T01:02:56;10.02;;;6.70;;
31043;SDS011;17710;52.520;13.352;2022-12-07T01:05:23;10.02;;;6.78;;
31043;SDS011;17710;52.520;13.352;2022-12-07T01:07:50;10.40;;;6.95;;
31043;SDS011;17710;52.520;13.352;2022-12-07T01:10:18;10.32;;;6.35;;
31043;SDS011;17710;52.520;13.352;2022-12-07T01:12:44;9.32;;;5.95;;
31043;SDS011;17710;52.520;13.352;2022-12-07T01:15:11;10.88;;;6.53;;
31043;SDS011;17710;52.520;13.352;2022-12-07T01:17:38;9.10;;;6.05;;
31043;SDS011;17710;52.520;13.352;2022-12-07T01:20:05;9.98;;;6.10;;
31043;SDS011;17710;52.520;13.352;2022-12-07T01:22:36;9.25;;;6.60;;
31043;SDS011;17710;52.520;13.352;2022-12-07T01:25:03;8.88;;;5.82;;
31043;SDS011;17710;52.520;13.352;2022-12-07T01:27:31;7.60;;;5.53;;
31043;SDS011;17710;52.520;13.352;2022-12-07T01:29:59;10.38;;;5.90;;
31043;SDS011;17710;52.520;13.352;2022-12-07T01:32:26;9.38;;;5.63;;
31043;SDS011;17710;52.520;13.352;2022-12-07T01:34:53;7.50;;;4.65;;
31043;SDS011;17710;52.520;13.352;2022-12-07T01:37:19;7.82;;;5.15;;
31043;SDS011;17710;52.520;13.352;2022-12-07T01:39:48;8.88;;;5.35;;
31043;SDS011;17710;52.520;13.352;2022-12-07T01:42:14;8.23;;;5.03;;
31043;SDS011;17710;52.520;13.352;2022-12-07T01:48:02;7.13;;;5.30;;
31043;SDS011;17710;52.520;13.352;2022-12-07T01:50:31;6.93;;;4.72;;
31043;SDS011;17710;52.520;13.352;2022-12-07T01:52:58;6.72;;;4.63;;
31043;SDS011;17710;52.520;13.352;2022-12-07T01:55:28;6.03;;;4.20;;
31043;SDS011;17710;52.520;13.352;2022-12-07T01:57:55;6.60;;;4.55;;
31043;SDS011;17710;52.520;13.352;2022-12-07T02:00:23;6.93;;;4.80;;
31043;SDS011;17710;52.520;13.352;2022-12-07T02:02:51;7.95;;;4.97;;
31043;SDS011;17710;52.520;13.352;2022-12-07T02:05:22;6.60;;;4.20;;
31043;SDS011;17710;52.520;13.352;2022-12-07T02:07:50;5.32;;;4.20;;
31043;SDS011;17710;52.520;13.352;2022-12-07T02:10:19;6.60;;;4.63;;
31043;SDS011;17710;52.520;13.352;2022-12-07T02:12:49;7.18;;;4.32;;
31043;SDS011;17710;52.520;13.352;2022-12-07T02:15:19;5.80;;;4.45;;
31043;SDS011;17710;52.520;13.352;2022-12-07T02:17:49;6.80;;;4.00;;
31043;SDS011;17710;52.520;13.352;2022-12-07T02:20:26;6.70;;;4.82;;
31043;SDS011;17710;52.520;13.352;2022-12-07T02:26:19;5.80;;;4.22;;
31043;SDS011;17710;52.520;13.352;2022-12-07T02:29:07;7.18;;;4.28;;
31043;SDS011;17710;52.520;13.352;2022-12-07T02:31:43;7.95;;;4.80;;
31043;SDS011;17710;52.520;13.352;2022-12-07T02:34:43;6.57;;;4.55;;
31043;SDS011;17710;52.520;13.352;2022-12-07T02:37:19;7.97;;;5.20;;
31043;SDS011;17710;52.520;13.352;2022-12-07T02:39:53;7.60;;;4.87;;
31043;SDS011;17710;52.520;13.352;2022-12-07T02:42:24;8.30;;;5.18;;
31043;SDS011;17710;52.520;13.352;2022-12-07T02:44:54;7.93;;;5.22;;
31043;SDS011;17710;52.520;13.352;2022-12-07T02:47:21;10.23;;;5.60;;
31043;SDS011;17710;52.520;13.352;2022-12-07T02:49:50;7.93;;;5.57;;
31043;SDS011;17710;52.520;13.352;2022-12-07T02:52:18;10.98;;;6.00;;
31043;SDS011;17710;52.520;13.352;2022-12-07T02:54:44;9.07;;;5.70;;
31043;SDS011;17710;52.520;13.352;2022-12-07T02:57:14;11.50;;;6.03;;
31043;SDS011;17710;52.520;13.352;2022-12-07T03:00:03;7.40;;;5.20;;
31043;SDS011;17710;52.520;13.352;2022-12-07T03:02:33;9.55;;;5.50;;
31043;SDS011;17710;52.520;13.352;2022-12-07T03:05:08;11.57;;;6.00;;
31043;SDS011;17710;52.520;13.352;2022-12-07T03:07:46;11.55;;;5.90;;
31043;SDS011;17710;52.520;13.352;2022-12-07T03:10:18;8.88;;;5.22;;
31043;SDS011;17710;52.520;13.352;2022-12-07T03:12:52;10.75;;;6.18;;
31043;SDS011;17710;52.520;13.352;2022-12-07T03:15:30;11.13;;;6.95;;
31043;SDS011;17710;52.520;13.352;2022-12-07T03:18:00;10.55;;;6.65;;
31043;SDS011;17710;52.520;13.352;2022-12-07T03:20:29;10.00;;;6.70;;
31043;SDS011;17710;52.520;13.352;2022-12-07T03:22:58;10.60;;;6.57;;
31043;SDS011;17710;52.520;13.352;2022-12-07T03:25:25;12.43;;;7.32;;
31043;SDS011;17710;52.520;13.352;2022-12-07T03:27:54;11.85;;;6.90;;
31043;SDS011;17710;52.520;13.352;2022-12-07T03:30:26;14.10;;;7.68;;
31043;SDS011;17710;52.520;13.352;2022-12-07T03:32:59;12.48;;;7.00;;
31043;SDS011;17710;52.520;13.352;2022-12-07T03:35:31;14.30;;;8.05;;
31043;SDS011;17710;52.520;13.352;2022-12-07T03:38:02;13.98;;;7.90;;
31043;SDS011;17710;52.520;13.352;2022-12-07T03:40:40;13.65;;;7.97;;
31043;SDS011;17710;52.520;13.352;2022-12-07T03:43:14;13.63;;;7.63;;
31043;SDS011;17710;52.520;13.352;2022-12-07T03:45:42;15.13;;;8.05;;
31043;SDS011;17710;52.520;13.352;2022-12-07T03:48:15;14.90;;;7.82;;
31043;SDS011;17710;52.520;13.352;2022-12-07T03:50:49;12.82;;;7.75;;
31043;SDS011;17710;52.520;13.352;2022-12-07T03:53:19;14.30;;;8.10;;
31043;SDS011;17710;52.520;13.352;2022-12-07T03:55:52;12.35;;;7.95;;
31043;SDS011;17710;52.520;13.352;2022-12-07T03:58:20;14.55;;;7.78;;
31043;SDS011;17710;52.520;13.352;2022-12-07T04:00:49;15.48;;;8.15;;
31043;SDS011;17710;52.520;13.352;2022-12-07T04:03:17;13.70;;;7.93;;
31043;SDS011;17710;52.520;13.352;2022-12-07T04:05:44;15.25;;;9.05;;
31043;SDS011;17710;52.520;13.352;2022-12-07T04:08:11;16.77;;;8.27;;
31043;SDS011;17710;52.520;13.352;2022-12-07T04:10:37;13.85;;;8.57;;
31043;SDS011;17710;52.520;13.352;2022-12-07T04:13:04;14.98;;;8.60;;
31043;SDS011;17710;52.520;13.352;2022-12-07T04:15:30;17.20;;;9.65;;
31043;SDS011;17710;52.520;13.352;2022-12-07T04:17:57;15.05;;;8.77;;
31043;SDS011;17710;52.520;13.352;2022-12-07T04:20:26;17.33;;;9.20;;
31043;SDS011;17710;52.520;13.352;2022-12-07T04:22:52;16.42;;;9.05;;
31043;SDS011;17710;52.520;13.352;2022-12-07T04:25:19;16.40;;;9.43;;
31043;SDS011;17710;52.520;13.352;2022-12-07T04:27:45;14.23;;;9.07;;
31043;SDS011;17710;52.520;13.352;2022-12-07T04:30:12;16.27;;;9.77;;
31043;SDS011;17710;52.520;13.352;2022-12-07T04:32:39;17.58;;;10.20;;
31043;SDS011;17710;52.520;13.352;2022-12-07T04:35:05;19.05;;;11.07;;
31043;SDS011;17710;52.520;13.352;2022-12-07T04:37:33;18.83;;;10.90;;
31043;SDS011;17710;52.520;13.352;2022-12-07T04:40:00;19.42;;;10.55;;
31043;SDS011;17710;52.520;13.352;2022-12-07T04:42:27;17.88;;;11.25;;
31043;SDS011;17710;52.520;13.352;2022-12-07T04:44:53;21.55;;;12.00;;
31043;SDS011;17710;52.520;13.352;2022-12-07T04:47:20;21.50;;;11.85;;
31043;SDS011;17710;52.520;13.352;2022-12-07T04:49:47;21.98;;;11.15;;
31043;SDS011;17710;52.520;13.352;2022-12-07T04:52:13;22.38;;;12.95;;
31043;SDS011;17710;52.520;13.352;2022-12-07T04:54:41;22.25;;;12.30;;
31043;SDS011;17710;52.520;13.352;2022-12-07T04:57:08;22.27;;;12.40;;
31043;SDS011;17710;52.520;13.352;2022-12-07T04:59:34;23.67;;;12.57;;
31043;SDS011;17710;52.520;13.352;2022-12-07T05:02:01;23.50;;;13.00;;
31043;SDS011;17710;52.520;13.352;2022-12-07T05:04:27;24.50;;;13.27;;
31043;SDS011;17710;52.520;13.352;2022-12-07T05:06:54;25.83;;;14.13;;
31043;SDS011;17710;52.520;13.352;2022-12-07T05:09:20;25.38;;;13.65;;
31043;SDS011;17710;52.520;13.352;2022-12-07T05:11:48;26.77;;;14.00;;
31043;SDS011;17710;52.520;13.352;2022-12-07T05:14:15;25.00;;;14.63;;
31043;SDS011;17710;52.520;13.352;2022-12-07T05:16:44;25.83;;;14.23;;
31043;SDS011;17710;52.520;13.352;2022-12-07T05:19:12;24.25;;;14.43;;
31043;SDS011;17710;52.520;13.352;2022-12-07T05:21:39;29.23;;;16.05;;
31043;SDS011;17710;52.520;13.352;2022-12-07T05:24:05;28.13;;;15.15;;
31043;SDS011;17710;52.520;13.352;2022-12-07T05:26:33;25.92;;;13.82;;
31043;SDS011;17710;52.520;13.352;2022-12-07T05:29:03;30.77;;;15.95;;
31043;SDS011;17710;52.520;13.352;2022-12-07T05:31:30;31.73;;;15.73;;
31043;SDS011;17710;52.520;13.352;2022-12-07T05:33:57;31.33;;;15.93;;
31043;SDS011;17710;52.520;13.352;2022-12-07T05:36:24;29.88;;;16.02;;
31043;SDS011;17710;52.520;13.352;2022-12-07T05:38:53;31.90;;;16.15;;
31043;SDS011;17710;52.520;13.352;2022-12-07T05:41:19;29.45;;;15.93;;
31043;SDS011;17710;52.520;13.352;2022-12-07T05:44:05;28.38;;;15.88;;
31043;SDS011;17710;52.520;13.352;2022-12-07T05:46:31;33.22;;;17.65;;
31043;SDS011;17710;52.520;13.352;2022-12-07T05:48:58;34.28;;;16.38;;
31043;SDS011;17710;52.520;13.352;2022-12-07T05:51:25;32.50;;;17.13;;
31043;SDS011;17710;52.520;13.352;2022-12-07T05:53:51;32.88;;;16.95;;
31043;SDS011;17710;52.520;13.352;2022-12-07T05:56:18;34.95;;;17.58;;
31043;SDS011;17710;52.520;13.352;2022-12-07T05:58:44;33.35;;;16.73;;
31043;SDS011;17710;52.520;13.352;2022-12-07T06:01:30;35.35;;;16.98;;
31043;SDS011;17710;52.520;13.352;2022-12-07T06:03:56;36.85;;;19.58;;
31043;SDS011;17710;52.520;13.352;2022-12-07T06:06:23;34.15;;;17.60;;
31043;SDS011;17710;52.520;13.352;2022-12-07T06:08:50;36.08;;;17.77;;
31043;SDS011;17710;52.520;13.352;2022-12-07T06:11:19;31.83;;;16.33;;
31043;SDS011;17710;52.520;13.352;2022-12-07T06:14:03;32.88;;;17.02;;
31043;SDS011;17710;52.520;13.352;2022-12-07T06:16:31;32.17;;;16.67;;
31043;SDS011;17710;52.520;13.352;2022-12-07T06:18:57;34.15;;;16.52;;
31043;SDS011;17710;52.520;13.352;2022-12-07T06:21:24;36.17;;;17.70;;
31043;SDS011;17710;52.520;13.352;2022-12-07T06:23:54;29.52;;;16.38;;
31043;SDS011;17710;52.520;13.352;2022-12-07T06:26:23;30.98;;;16.40;;
31043;SDS011;17710;52.520;13.352;2022-12-07T06:28:50;31.95;;;16.92;;
31043;SDS011;17710;52.520;13.352;2022-12-07T06:31:16;29.00;;;14.98;;
31043;SDS011;17710;52.520;13.352;2022-12-07T06:33:44;30.92;;;15.23;;
31043;SDS011;17710;52.520;13.352;2022-12-07T06:36:11;31.42;;;15.07;;
31043;SDS011;17710;52.520;13.352;2022-12-07T06:38:37;28.88;;;15.52;;
31043;SDS011;17710;52.520;13.352;2022-12-07T06:41:05;31.48;;;15.20;;
31043;SDS011;17710;52.520;13.352;2022-12-07T06:43:31;31.30;;;15.63;;
31043;SDS011;17710;52.520;13.352;2022-12-07T06:45:58;30.40;;;16.25;;
31043;SDS011;17710;52.520;13.352;2022-12-07T06:48:25;31.05;;;15.32;;
31043;SDS011;17710;52.520;13.352;2022-12-07T06:50:53;32.08;;;15.95;;
31043;SDS011;17710;52.520;13.352;2022-12-07T06:53:19;33.72;;;16.63;;
31043;SDS011;17710;52.520;13.352;2022-12-07T06:55:46;30.92;;;16.48;;
31043;SDS011;17710;52.520;13.352;2022-12-07T06:58:12;32.60;;;16.42;;
31043;SDS011;17710;52.520;13.352;2022-12-07T07:00:39;31.95;;;17.15;;
31043;SDS011;17710;52.520;13.352;2022-12-07T07:03:06;33.72;;;16.67;;
31043;SDS011;17710;52.520;13.352;2022-12-07T07:05:32;34.55;;;16.70;;
31043;SDS011;17710;52.520;13.352;2022-12-07T07:08:00;31.27;;;16.65;;
31043;SDS011;17710;52.520;13.352;2022-12-07T07:10:27;32.33;;;17.23;;
31043;SDS011;17710;52.520;13.352;2022-12-07T07:12:54;31.42;;;17.10;;
31043;SDS011;17710;52.520;13.352;2022-12-07T07:15:20;36.75;;;17.17;;
31043;SDS011;17710;52.520;13.352;2022-12-07T07:17:47;38.80;;;18.13;;
31043;SDS011;17710;52.520;13.352;2022-12-07T07:20:14;40.05;;;17.85;;
31043;SDS011;17710;52.520;13.352;2022-12-07T07:22:41;29.48;;;16.48;;
31043;SDS011;17710;52.520;13.352;2022-12-07T07:25:12;39.50;;;18.98;;
31043;SDS011;17710;52.520;13.352;2022-12-07T07:27:39;35.63;;;16.45;;
31043;SDS011;17710;52.520;13.352;2022-12-07T07:30:06;34.03;;;16.60;;
31043;SDS011;17710;52.520;13.352;2022-12-07T07:32:33;30.63;;;14.98;;
31043;SDS011;17710;52.520;13.352;2022-12-07T07:34:59;29.25;;;15.80;;
31043;SDS011;17710;52.520;13.352;2022-12-07T07:37:26;33.90;;;15.43;;
31043;SDS011;17710;52.520;13.352;2022-12-07T07:39:53;27.98;;;13.05;;
31043;SDS011;17710;52.520;13.352;2022-12-07T07:42:20;28.95;;;14.68;;
31043;SDS011;17710;52.520;13.352;2022-12-07T07:44:47;29.20;;;13.75;;
31043;SDS011;17710;52.520;13.352;2022-12-07T07:47:14;26.33;;;12.80;;
31043;SDS011;17710;52.520;13.352;2022-12-07T07:49:43;25.15;;;12.80;;
31043;SDS011;17710;52.520;13.352;2022-12-07T07:52:09;22.83;;;12.10;;
31043;SDS011;17710;52.520;13.352;2022-12-07T07:54:36;21.40;;;11.20;;
31043;SDS011;17710;52.520;13.352;2022-12-07T07:57:02;19.83;;;10.23;;
31043;SDS011;17710;52.520;13.352;2022-12-07T07:59:30;22.17;;;10.13;;
31043;SDS011;17710;52.520;13.352;2022-12-07T08:01:57;20.02;;;9.93;;
31043;SDS011;17710;52.520;13.352;2022-12-07T08:04:25;17.65;;;9.30;;
31043;SDS011;17710;52.520;13.352;2022-12-07T08:06:52;21.05;;;9.77;;
31043;SDS011;17710;52.520;13.352;2022-12-07T08:09:18;19.33;;;9.13;;
31043;SDS011;17710;52.520;13.352;2022-12-07T08:11:45;18.90;;;8.73;;
31043;SDS011;17710;52.520;13.352;2022-12-07T08:14:11;14.80;;;8.98;;
31043;SDS011;17710;52.520;13.352;2022-12-07T08:16:39;19.42;;;8.43;;
31043;SDS011;17710;52.520;13.352;2022-12-07T08:19:06;14.68;;;8.60;;
31043;SDS011;17710;52.520;13.352;2022-12-07T08:21:33;16.08;;;8.18;;
31043;SDS011;17710;52.520;13.352;2022-12-07T08:24:00;15.27;;;7.47;;
31043;SDS011;17710;52.520;13.352;2022-12-07T08:26:26;15.77;;;6.78;;
31043;SDS011;17710;52.520;13.352;2022-12-07T08:28:53;15.07;;;7.32;;
31043;SDS011;17710;52.520;13.352;2022-12-07T08:31:19;10.60;;;6.15;;
31043;SDS011;17710;52.520;13.352;2022-12-07T08:33:47;10.57;;;5.60;;
31043;SDS011;17710;52.520;13.352;2022-12-07T08:36:15;7.93;;;5.72;;
31043;SDS011;17710;52.520;13.352;2022-12-07T08:38:42;10.05;;;5.65;;
31043;SDS011;17710;52.520;13.352;2022-12-07T08:41:11;8.77;;;4.55;;
31043;SDS011;17710;52.520;13.352;2022-12-07T08:43:38;8.35;;;4.00;;
31043;SDS011;17710;52.520;13.352;2022-12-07T08:46:06;5.90;;;3.92;;
31043;SDS011;17710;52.520;13.352;2022-12-07T08:48:36;13.25;;;5.10;;
31043;SDS011;17710;52.520;13.352;2022-12-07T08:51:08;4.45;;;2.72;;
31043;SDS011;17710;52.520;13.352;2022-12-07T08:53:34;6.28;;;2.53;;
31043;SDS011;17710;52.520;13.352;2022-12-07T08:56:02;7.53;;;2.70;;
31043;SDS011;17710;52.520;13.352;2022-12-07T08:58:31;2.25;;;1.80;;
31043;SDS011;17710;52.520;13.352;2022-12-07T09:00:58;5.22;;;2.08;;
31043;SDS011;17710;52.520;13.352;2022-12-07T09:03:24;3.33;;;1.67;;
31043;SDS011;17710;52.520;13.352;2022-12-07T09:05:51;3.33;;;2.90;;
31043;SDS011;17710;52.520;13.352;2022-12-07T09:08:20;2.92;;;1.80;;
31043;SDS011;17710;52.520;13.352;2022-12-07T09:10:47;3.55;;;1.60;;
31043;SDS011;17710;52.520;13.352;2022-12-07T09:13:14;3.53;;;1.63;;
31043;SDS011;17710;52.520;13.352;2022-12-07T09:15:40;1.73;;;1.40;;
31043;SDS011;17710;52.520;13.352;2022-12-07T09:18:07;4.03;;;1.67;;
31043;SDS011;17710;52.520;13.352;2022-12-07T09:20:33;1.83;;;1.60;;
31043;SDS011;17710;52.520;13.352;2022-12-07T09:23:00;5.18;;;1.27;;
31043;SDS011;17710;52.520;13.352;2022-12-07T09:25:27;6.20;;;1.52;;
31043;SDS011;17710;52.520;13.352;2022-12-07T09:27:57;4.03;;;1.77;;
31043;SDS011;17710;52.520;13.352;2022-12-07T09:30:25;1.88;;;1.50;;
31043;SDS011;17710;52.520;13.352;2022-12-07T09:32:52;3.63;;;1.50;;
31043;SDS011;17710;52.520;13.352;2022-12-07T09:35:20;2.13;;;1.70;;
31043;SDS011;17710;52.520;13.352;2022-12-07T09:37:46;2.33;;;1.60;;
31043;SDS011;17710;52.520;13.352;2022-12-07T09:40:13;3.42;;;2.33;;
31043;SDS011;17710;52.520;13.352;2022-12-07T09:42:43;3.53;;;2.05;;
31043;SDS011;17710;52.520;13.352;2022-12-07T09:45:15;4.05;;;2.05;;
31043;SDS011;17710;52.520;13.352;2022-12-07T09:47:45;2.13;;;1.50;;
31043;SDS011;17710;52.520;13.352;2022-12-07T09:50:12;4.65;;;1.48;;
31043;SDS011;17710;52.520;13.352;2022-12-07T09:52:42;2.50;;;1.40;;
31043;SDS011;17710;52.520;13.352;2022-12-07T09:55:13;1.95;;;1.42;;
31043;SDS011;17710;52.520;13.352;2022-12-07T09:57:43;2.92;;;2.45;;
31043;SDS011;17710;52.520;13.352;2022-12-07T10:00:11;3.17;;;1.70;;
31043;SDS011;17710;52.520;13.352;2022-12-07T10:02:40;1.38;;;1.27;;
31043;SDS011;17710;52.520;13.352;2022-12-07T10:05:10;2.63;;;1.48;;
31043;SDS011;17710;52.520;13.352;2022-12-07T10:07:39;2.13;;;1.45;;
31043;SDS011;17710;52.520;13.352;2022-12-07T10:10:09;2.80;;;1.60;;
31043;SDS011;17710;52.520;13.352;2022-12-07T10:12:56;4.32;;;1.90;;
31043;SDS011;17710;52.520;13.352;2022-12-07T10:15:38;3.30;;;1.70;;
31043;SDS011;17710;52.520;13.352;2022-12-07T10:18:16;2.00;;;1.80;;
31043;SDS011;17710;52.520;13.352;2022-12-07T10:20:45;2.92;;;1.90;;
31043;SDS011;17710;52.520;13.352;2022-12-07T10:23:13;2.97;;;1.50;;
31043;SDS011;17710;52.520;13.352;2022-12-07T10:25:41;1.73;;;1.52;;
31043;SDS011;17710;52.520;13.352;2022-12-07T10:28:13;1.73;;;1.58;;
31043;SDS011;17710;52.520;13.352;2022-12-07T10:30:49;4.50;;;2.03;;
31043;SDS011;17710;52.520;13.352;2022-12-07T10:33:30;5.43;;;1.73;;
31043;SDS011;17710;52.520;13.352;2022-12-07T10:36:00;6.00;;;2.17;;
31043;SDS011;17710;52.520;13.352;2022-12-07T10:38:43;2.58;;;1.90;;
31043;SDS011;17710;52.520;13.352;2022-12-07T10:41:11;1.60;;;1.48;;
31043;SDS011;17710;52.520;13.352;2022-12-07T10:43:39;3.65;;;2.00;;
31043;SDS011;17710;52.520;13.352;2022-12-07T10:46:18;3.65;;;2.13;;
31043;SDS011;17710;52.520;13.352;2022-12-07T10:48:59;5.57;;;2.40;;
31043;SDS011;17710;52.520;13.352;2022-12-07T10:51:36;5.78;;;2.28;;
31043;SDS011;17710;52.520;13.352;2022-12-07T10:54:12;7.15;;;2.53;;
31043;SDS011;17710;52.520;13.352;2022-12-07T10:56:54;6.82;;;2.83;;
31043;SDS011;17710;52.520;13.352;2022-12-07T10:59:40;8.02;;;2.83;;
31043;SDS011;17710;52.520;13.352;2022-12-07T11:02:24;4.03;;;2.55;;
31043;SDS011;17710;52.520;13.352;2022-12-07T11:05:01;5.22;;;2.63;;
31043;SDS011;17710;52.520;13.352;2022-12-07T11:07:39;5.70;;;3.05;;
31043;SDS011;17710;52.520;13.352;2022-12-07T11:10:15;4.88;;;2.97;;
31043;SDS011;17710;52.520;13.352;2022-12-07T11:12:55;5.50;;;2.80;;
31043;SDS011;17710;52.520;13.352;2022-12-07T11:15:42;5.28;;;2.55;;
31043;SDS011;17710;52.520;13.352;2022-12-07T11:18:22;4.75;;;2.55;;
31043;SDS011;17710;52.520;13.352;2022-12-07T11:20:55;4.47;;;2.80;;
31043;SDS011;17710;52.520;13.352;2022-12-07T11:23:29;3.60;;;2.90;;
31043;SDS011;17710;52.520;13.352;2022-12-07T11:26:07;8.15;;;3.10;;
31043;SDS011;17710;52.520;13.352;2022-12-07T11:28:53;5.55;;;2.97;;
31043;SDS011;17710;52.520;13.352;2022-12-07T11:31:33;9.40;;;3.60;;
31043;SDS011;17710;52.520;13.352;2022-12-07T11:34:06;10.00;;;3.00;;
31043;SDS011;17710;52.520;13.352;2022-12-07T11:36:40;4.63;;;3.22;;
31043;SDS011;17710;52.520;13.352;2022-12-07T11:39:12;6.80;;;3.03;;
31043;SDS011;17710;52.520;13.352;2022-12-07T11:41:48;5.72;;;3.03;;
31043;SDS011;17710;52.520;13.352;2022-12-07T11:44:22;3.55;;;2.35;;
31043;SDS011;17710;52.520;13.352;2022-12-07T11:46:59;5.97;;;3.40;;
31043;SDS011;17710;52.520;13.352;2022-12-07T11:49:36;9.88;;;3.80;;
31043;SDS011;17710;52.520;13.352;2022-12-07T11:52:10;4.85;;;2.90;;
31043;SDS011;17710;52.520;13.352;2022-12-07T11:54:46;5.40;;;3.00;;
31043;SDS011;17710;52.520;13.352;2022-12-07T11:57:17;11.10;;;3.30;;
31043;SDS011;17710;52.520;13.352;2022-12-07T11:59:50;9.98;;;3.97;;
31043;SDS011;17710;52.520;13.352;2022-12-07T12:02:26;7.35;;;3.80;;
31043;SDS011;17710;52.520;13.352;2022-12-07T12:04:58;6.00;;;3.50;;
31043;SDS011;17710;52.520;13.352;2022-12-07T12:07:32;10.07;;;3.30;;
31043;SDS011;17710;52.520;13.352;2022-12-07T12:10:01;9.10;;;3.33;;
31043;SDS011;17710;52.520;13.352;2022-12-07T12:12:40;9.73;;;3.08;;
31043;SDS011;17710;52.520;13.352;2022-12-07T12:15:20;7.28;;;2.97;;
31043;SDS011;17710;52.520;13.352;2022-12-07T12:17:59;5.22;;;2.60;;
31043;SDS011;17710;52.520;13.352;2022-12-07T12:20:36;7.00;;;2.88;;
31043;SDS011;17710;52.520;13.352;2022-12-07T12:23:10;6.57;;;2.47;;
31043;SDS011;17710;52.520;13.352;2022-12-07T12:25:41;7.13;;;2.38;;
31043;SDS011;17710;52.520;13.352;2022-12-07T12:28:18;6.32;;;2.55;;
31043;SDS011;17710;52.520;13.352;2022-12-07T12:31:10;4.57;;;1.90;;
31043;SDS011;17710;52.520;13.352;2022-12-07T12:33:43;7.93;;;2.17;;
31043;SDS011;17710;52.520;13.352;2022-12-07T12:36:23;4.80;;;2.10;;
31043;SDS011;17710;52.520;13.352;2022-12-07T12:38:52;6.32;;;2.22;;
31043;SDS011;17710;52.520;13.352;2022-12-07T12:41:51;8.23;;;2.20;;
31043;SDS011;17710;52.520;13.352;2022-12-07T12:44:39;4.75;;;2.05;;
31043;SDS011;17710;52.520;13.352;2022-12-07T12:50:24;7.40;;;1.98;;
31043;SDS011;17710;52.520;13.352;2022-12-07T12:53:00;5.13;;;1.88;;
31043;SDS011;17710;52.520;13.352;2022-12-07T12:58:40;11.10;;;2.15;;
31043;SDS011;17710;52.520;13.352;2022-12-07T13:01:37;6.88;;;1.85;;
31043;SDS011;17710;52.520;13.352;2022-12-07T13:04:24;3.60;;;1.45;;
31043;SDS011;17710;52.520;13.352;2022-12-07T13:09:22;13.57;;;2.40;;
31043;SDS011;17710;52.520;13.352;2022-12-07T13:11:55;5.35;;;1.60;;
31043;SDS011;17710;52.520;13.352;2022-12-07T13:23:24;2.15;;;1.70;;
31043;SDS011;17710;52.520;13.352;2022-12-07T13:26:03;7.57;;;2.30;;
31043;SDS011;17710;52.520;13.352;2022-12-07T13:28:35;10.35;;;1.80;;
31043;SDS011;17710;52.520;13.352;2022-12-07T13:31:29;5.55;;;2.05;;
31043;SDS011;17710;52.520;13.352;2022-12-07T13:34:01;4.28;;;2.03;;
31043;SDS011;17710;52.520;13.352;2022-12-07T13:36:32;9.00;;;2.70;;
31043;SDS011;17710;52.520;13.352;2022-12-07T13:39:16;6.45;;;2.13;;
31043;SDS011;17710;52.520;13.352;2022-12-07T13:41:44;4.90;;;1.85;;
31043;SDS011;17710;52.520;13.352;2022-12-07T13:44:18;5.63;;;2.00;;
31043;SDS011;17710;52.520;13.352;2022-12-07T13:46:48;7.57;;;2.03;;
31043;SDS011;17710;52.520;13.352;2022-12-07T13:49:22;5.68;;;2.53;;
31043;SDS011;17710;52.520;13.352;2022-12-07T13:51:50;6.07;;;1.83;;
31043;SDS011;17710;52.520;13.352;2022-12-07T13:54:19;8.15;;;1.63;;
31043;SDS011;17710;52.520;13.352;2022-12-07T13:56:47;7.50;;;1.52;;
31043;SDS011;17710;52.520;13.352;2022-12-07T13:59:17;6.40;;;2.10;;
31043;SDS011;17710;52.520;13.352;2022-12-07T14:01:46;9.07;;;1.50;;
31043;SDS011;17710;52.520;13.352;2022-12-07T14:04:17;6.65;;;1.60;;
31043;SDS011;17710;52.520;13.352;2022-12-07T14:06:58;3.95;;;1.25;;
31043;SDS011;17710;52.520;13.352;2022-12-07T14:09:27;9.52;;;2.20;;
31043;SDS011;17710;52.520;13.352;2022-12-07T14:11:56;5.47;;;1.83;;
31043;SDS011;17710;52.520;13.352;2022-12-07T14:14:24;7.35;;;1.42;;
31043;SDS011;17710;52.520;13.352;2022-12-07T14:16:58;5.95;;;2.00;;
31043;SDS011;17710;52.520;13.352;2022-12-07T14:25:01;17.25;;;3.47;;
31043;SDS011;17710;52.520;13.352;2022-12-07T14:27:47;5.38;;;1.77;;
31043;SDS011;17710;52.520;13.352;2022-12-07T14:30:16;7.05;;;2.03;;
31043;SDS011;17710;52.520;13.352;2022-12-07T14:32:44;11.20;;;2.00;;
31043;SDS011;17710;52.520;13.352;2022-12-07T14:35:14;7.68;;;1.50;;
31043;SDS011;17710;52.520;13.352;2022-12-07T14:37:42;37.78;;;19.23;;
31043;SDS011;17710;52.520;13.352;2022-12-07T14:40:13;11.15;;;1.95;;
31043;SDS011;17710;52.520;13.352;2022-12-07T14:42:45;5.15;;;1.48;;
31043;SDS011;17710;52.520;13.352;2022-12-07T14:45:14;6.40;;;1.80;;
31043;SDS011;17710;52.520;13.352;2022-12-07T14:47:43;9.43;;;1.77;;
31043;SDS011;17710;52.520;13.352;2022-12-07T14:50:11;6.68;;;2.10;;
31043;SDS011;17710;52.520;13.352;2022-12-07T14:52:38;6.95;;;2.25;;
31043;SDS011;17710;52.520;13.352;2022-12-07T14:55:08;8.18;;;2.05;;
31043;SDS011;17710;52.520;13.352;2022-12-07T14:57:45;4.45;;;1.55;;
31043;SDS011;17710;52.520;13.352;2022-12-07T15:00:16;10.30;;;1.85;;
31043;SDS011;17710;52.520;13.352;2022-12-07T15:02:44;11.77;;;2.05;;
31043;SDS011;17710;52.520;13.352;2022-12-07T15:05:12;8.65;;;2.15;;
31043;SDS011;17710;52.520;13.352;2022-12-07T15:07:39;10.90;;;1.85;;
31043;SDS011;17710;52.520;13.352;2022-12-07T15:10:06;3.70;;;1.52;;
31043;SDS011;17710;52.520;13.352;2022-12-07T15:12:40;9.40;;;2.17;;